createdAt,value
2023-02-25T00:01:36.233Z,5.60
2023-02-25T00:04:02.715Z,5.68
2023-02-25T00:06:29.254Z,5.88
2023-02-25T00:08:56.004Z,6.07
2023-02-25T00:11:25.725Z,5.70
2023-02-25T00:13:52.658Z,5.97
2023-02-25T00:16:22.912Z,6.20
2023-02-25T00:18:58.437Z,6.55
2023-02-25T00:21:29.145Z,6.55
2023-02-25T00:24:00.114Z,6.63
2023-02-25T00:26:31.062Z,5.80
2023-02-25T00:28:58.001Z,5.85
2023-02-25T00:31:25.909Z,6.50
2023-02-25T00:33:53.590Z,6.28
2023-02-25T00:36:26.248Z,4.93
2023-02-25T00:38:57.139Z,4.75
2023-02-25T00:41:27.957Z,5.70
2023-02-25T00:44:00.645Z,5.10
2023-02-25T00:46:29.352Z,4.85
2023-02-25T00:48:55.925Z,4.32
2023-02-25T00:51:26.392Z,6.00
2023-02-25T00:53:55.748Z,4.82
2023-02-25T00:56:24.688Z,4.50
2023-02-25T00:58:53.050Z,4.05
2023-02-25T01:01:30.249Z,3.90
2023-02-25T01:03:58.324Z,4.95
2023-02-25T01:06:27.782Z,4.53
2023-02-25T01:08:54.876Z,4.72
2023-02-25T01:11:29.757Z,4.30
2023-02-25T01:14:03.944Z,4.22
2023-02-25T01:16:32.652Z,4.53
2023-02-25T01:19:05.936Z,4.05
2023-02-25T01:21:38.077Z,5.28
2023-02-25T01:24:19.632Z,5.00
2023-02-25T01:26:48.350Z,5.22
2023-02-25T01:29:19.045Z,4.57
2023-02-25T01:31:46.414Z,4.97
2023-02-25T01:34:17.607Z,4.93
2023-02-25T01:36:45.694Z,5.40
2023-02-25T01:39:15.837Z,5.15
2023-02-25T01:41:46.261Z,4.38
2023-02-25T01:44:17.683Z,5.20
2023-02-25T01:46:49.898Z,5.07
2023-02-25T01:49:29.959Z,5.40
2023-02-25T01:52:23.622Z,4.53
2023-02-25T01:54:58.135Z,4.82
2023-02-25T01:57:28.806Z,4.97
2023-02-25T01:59:55.598Z,5.85
2023-02-25T02:02:27.447Z,4.75
2023-02-25T02:04:56.008Z,5.47
2023-02-25T02:07:24.757Z,5.15
2023-02-25T02:09:58.290Z,5.10
2023-02-25T02:12:35.936Z,4.63
2023-02-25T02:15:10.950Z,4.93
2023-02-25T02:18:03.123Z,6.25
2023-02-25T02:21:10.365Z,5.95
2023-02-25T02:24:35.966Z,5.93
2023-02-25T02:27:10.683Z,5.55
2023-02-25T02:30:18.821Z,5.90
2023-02-25T02:33:17.501Z,5.80
2023-02-25T02:36:05.949Z,5.80
2023-02-25T02:39:18.140Z,6.32
2023-02-25T02:42:12.496Z,5.60
2023-02-25T02:45:01.509Z,7.22
2023-02-25T02:47:42.614Z,6.32
2023-02-25T02:50:29.443Z,5.90
2023-02-25T02:53:03.968Z,6.40
2023-02-25T02:55:41.082Z,6.70
2023-02-25T02:58:17.204Z,7.03
2023-02-25T03:00:50.433Z,7.20
2023-02-25T03:03:29.965Z,6.95
2023-02-25T03:05:56.458Z,6.80
2023-02-25T03:08:29.685Z,6.40
2023-02-25T03:10:56.411Z,6.97
2023-02-25T03:13:22.980Z,6.38
2023-02-25T03:15:52.595Z,6.95
2023-02-25T03:18:34.667Z,6.75
2023-02-25T03:21:12.786Z,6.55
2023-02-25T03:23:42.883Z,6.90
2023-02-25T03:26:23.144Z,6.70
2023-02-25T03:28:50.305Z,5.97
2023-02-25T03:31:41.036Z,6.32
2023-02-25T03:34:19.208Z,6.72
2023-02-25T03:36:59.740Z,7.15
2023-02-25T03:39:35.975Z,6.80
2023-02-25T03:42:05.777Z,7.05
2023-02-25T03:44:45.413Z,7.38
2023-02-25T03:47:14.184Z,6.53
2023-02-25T03:49:59.054Z,6.63
2023-02-25T03:52:27.949Z,6.72
2023-02-25T03:54:57.586Z,7.13
2023-02-25T03:57:33.640Z,6.75
2023-02-25T04:00:00.150Z,6.75
2023-02-25T04:02:33.628Z,6.90
2023-02-25T04:05:00.257Z,6.40
2023-02-25T04:07:27.083Z,7.93
2023-02-25T04:09:53.588Z,6.60
2023-02-25T04:12:20.096Z,5.93
2023-02-25T04:14:46.541Z,6.38
2023-02-25T04:17:12.986Z,6.13
2023-02-25T04:19:39.550Z,5.63
2023-02-25T04:22:08.021Z,6.20
2023-02-25T04:24:34.561Z,6.10
2023-02-25T04:27:02.464Z,6.07
2023-02-25T04:29:29.699Z,5.20
2023-02-25T04:31:56.823Z,6.70
2023-02-25T04:34:24.562Z,6.05
2023-02-25T04:36:51.938Z,6.38
2023-02-25T04:39:19.472Z,6.68
2023-02-25T04:41:46.010Z,6.20
2023-02-25T04:44:12.602Z,6.95
2023-02-25T04:46:43.099Z,7.72
2023-02-25T04:49:10.561Z,6.95
2023-02-25T04:51:39.263Z,7.10
2023-02-25T04:54:06.489Z,7.30
2023-02-25T04:56:32.975Z,7.65
2023-02-25T04:58:59.582Z,7.63
2023-02-25T05:01:26.160Z,7.82
2023-02-25T05:03:56.873Z,8.82
2023-02-25T05:06:25.804Z,8.98
2023-02-25T05:08:52.480Z,7.78
2023-02-25T05:11:20.416Z,9.10
2023-02-25T05:13:47.562Z,8.27
2023-02-25T05:16:16.952Z,8.90
2023-02-25T05:18:46.543Z,8.48
2023-02-25T05:21:17.787Z,7.95
2023-02-25T05:23:46.514Z,7.55
2023-02-25T05:26:16.353Z,6.68
2023-02-25T05:28:45.624Z,8.27
2023-02-25T05:31:13.099Z,7.55
2023-02-25T05:33:40.529Z,7.50
2023-02-25T05:36:13.156Z,7.30
2023-02-25T05:38:40.682Z,7.80
2023-02-25T05:41:09.742Z,7.55
2023-02-25T05:43:38.684Z,7.70
2023-02-25T05:46:11.687Z,8.05
2023-02-25T05:48:40.831Z,8.60
2023-02-25T05:51:13.026Z,8.50
2023-02-25T05:53:39.583Z,7.85
2023-02-25T05:56:09.668Z,7.90
2023-02-25T05:58:36.479Z,7.88
2023-02-25T06:01:15.856Z,7.97
2023-02-25T06:03:45.539Z,7.93
2023-02-25T06:06:15.319Z,7.90
2023-02-25T06:08:45.776Z,8.13
2023-02-25T06:11:18.674Z,8.10
2023-02-25T06:13:46.970Z,7.38
2023-02-25T06:16:14.625Z,8.85
2023-02-25T06:18:41.241Z,7.88
2023-02-25T06:21:11.203Z,7.10
2023-02-25T06:23:40.892Z,7.78
2023-02-25T06:26:09.946Z,7.65
2023-02-25T06:28:36.526Z,8.07
2023-02-25T06:31:06.490Z,8.80
2023-02-25T06:33:32.944Z,7.63
2023-02-25T06:35:59.440Z,8.32
2023-02-25T06:38:26.214Z,8.60
2023-02-25T06:40:52.825Z,7.57
2023-02-25T06:43:19.413Z,8.75
2023-02-25T06:45:46.013Z,8.50
2023-02-25T06:48:12.450Z,7.97
2023-02-25T06:50:40.738Z,8.00
2023-02-25T06:53:08.992Z,8.10
2023-02-25T06:55:38.542Z,8.73
2023-02-25T06:58:05.074Z,7.82
2023-02-25T07:00:31.688Z,8.88
2023-02-25T07:02:58.199Z,9.73
2023-02-25T07:05:24.738Z,8.73
2023-02-25T07:07:51.507Z,8.50
2023-02-25T07:10:17.995Z,8.13
2023-02-25T07:12:44.512Z,9.13
2023-02-25T07:15:11.179Z,8.73
2023-02-25T07:17:37.751Z,9.23
2023-02-25T07:20:04.663Z,8.38
2023-02-25T07:22:31.132Z,8.35
2023-02-25T07:24:57.665Z,8.45
2023-02-25T07:27:24.890Z,8.45
2023-02-25T07:29:51.406Z,8.25
2023-02-25T07:32:17.997Z,7.53
2023-02-25T07:34:44.678Z,7.88
2023-02-25T07:37:12.546Z,7.95
2023-02-25T07:39:39.074Z,8.60
2023-02-25T07:42:05.552Z,6.65
2023-02-25T07:44:32.011Z,7.10
2023-02-25T07:46:58.433Z,6.88
2023-02-25T07:49:24.889Z,6.72
2023-02-25T07:51:51.322Z,7.00
2023-02-25T07:54:21.014Z,7.10
2023-02-25T07:56:50.789Z,7.38
2023-02-25T07:59:18.832Z,7.72
2023-02-25T08:01:45.544Z,6.97
2023-02-25T08:04:12.154Z,7.35
2023-02-25T08:06:41.438Z,8.05
2023-02-25T08:09:12.154Z,7.40
2023-02-25T08:11:40.144Z,7.10
2023-02-25T08:14:07.125Z,6.78
2023-02-25T08:16:34.244Z,6.90
2023-02-25T08:19:01.826Z,7.60
2023-02-25T08:21:28.411Z,7.78
2023-02-25T08:23:54.975Z,7.82
2023-02-25T08:26:23.445Z,8.18
2023-02-25T08:28:51.572Z,8.18
2023-02-25T08:31:19.135Z,8.52
2023-02-25T08:33:49.322Z,8.55
2023-02-25T08:36:23.264Z,8.23
2023-02-25T08:38:51.697Z,8.45
2023-02-25T08:41:21.454Z,8.07
2023-02-25T08:43:56.672Z,7.70
2023-02-25T08:46:26.189Z,7.32
2023-02-25T08:48:54.438Z,8.18
2023-02-25T08:51:24.588Z,6.97
2023-02-25T08:53:52.180Z,7.22
2023-02-25T08:56:18.725Z,7.13
2023-02-25T08:58:45.367Z,7.25
2023-02-25T09:01:17.749Z,6.70
2023-02-25T09:03:54.169Z,6.65
2023-02-25T09:06:27.956Z,7.45
2023-02-25T09:08:56.634Z,7.05
2023-02-25T09:11:25.374Z,7.22
2023-02-25T09:13:54.591Z,6.35
2023-02-25T09:16:21.263Z,6.88
2023-02-25T09:18:50.317Z,6.40
2023-02-25T09:21:18.689Z,13.45
2023-02-25T09:23:46.826Z,8.23
2023-02-25T09:26:14.244Z,9.57
2023-02-25T09:28:40.766Z,8.70
2023-02-25T09:31:07.469Z,8.32
2023-02-25T09:33:36.451Z,4.80
2023-02-25T09:36:10.676Z,2.75
2023-02-25T09:38:39.360Z,2.40
2023-02-25T09:41:30.267Z,2.30
2023-02-25T09:44:15.267Z,1.50
2023-02-25T09:46:52.521Z,1.45
2023-02-25T09:49:58.259Z,1.90
2023-02-25T09:52:49.729Z,1.33
2023-02-25T09:55:23.846Z,1.13
2023-02-25T09:58:26.511Z,1.77
2023-02-25T10:01:06.036Z,1.40
2023-02-25T10:03:42.343Z,1.50
2023-02-25T10:06:24.648Z,1.60
2023-02-25T10:09:02.816Z,1.65
2023-02-25T10:11:46.180Z,1.63
2023-02-25T10:15:19.323Z,1.52
2023-02-25T10:18:13.905Z,1.50
2023-02-25T10:21:04.029Z,1.30
2023-02-25T10:23:42.544Z,1.30
2023-02-25T10:26:24.633Z,1.30
2023-02-25T10:29:00.306Z,1.40
2023-02-25T10:31:29.725Z,1.50
2023-02-25T10:34:03.948Z,1.83
2023-02-25T10:36:39.464Z,1.55
2023-02-25T10:39:06.308Z,1.95
2023-02-25T10:41:32.866Z,1.92
2023-02-25T10:43:59.337Z,2.35
2023-02-25T10:46:58.932Z,1.92
2023-02-25T10:49:28.750Z,3.03
2023-02-25T10:52:10.121Z,1.83
2023-02-25T10:54:53.194Z,1.70
2023-02-25T10:57:41.448Z,1.98
2023-02-25T11:00:28.973Z,2.15
2023-02-25T11:02:58.169Z,2.50
2023-02-25T11:05:42.062Z,2.28
2023-02-25T11:08:30.025Z,2.42
2023-02-25T11:11:21.842Z,2.03
2023-02-25T11:14:09.734Z,2.22
2023-02-25T11:16:40.343Z,2.47
2023-02-25T11:19:38.619Z,3.15
2023-02-25T11:22:18.243Z,1.90
2023-02-25T11:25:00.642Z,2.58
2023-02-25T11:27:41.600Z,2.25
2023-02-25T11:30:14.125Z,2.13
2023-02-25T11:32:48.921Z,2.40
2023-02-25T11:35:31.189Z,2.38
2023-02-25T11:38:12.282Z,1.92
2023-02-25T11:40:45.287Z,2.30
2023-02-25T11:46:24.997Z,1.65
2023-02-25T11:49:00.258Z,1.92
2023-02-25T11:51:47.006Z,2.47
2023-02-25T11:54:38.774Z,2.03
2023-02-25T11:57:14.678Z,2.55
2023-02-25T12:00:19.324Z,2.58
2023-02-25T12:03:13.325Z,2.22
2023-02-25T12:06:11.582Z,1.67
2023-02-25T12:08:59.683Z,1.52
2023-02-25T12:12:18.879Z,2.08
2023-02-25T12:15:23.932Z,2.00
2023-02-25T12:18:11.980Z,1.85
2023-02-25T12:21:16.694Z,2.30
2023-02-25T12:24:19.634Z,2.10
2023-02-25T12:27:21.803Z,1.80
2023-02-25T12:30:54.445Z,2.00
2023-02-25T12:34:11.298Z,2.03
2023-02-25T12:37:19.252Z,2.15
2023-02-25T12:40:38.270Z,2.40
2023-02-25T12:43:44.936Z,2.42
2023-02-25T12:46:27.634Z,2.30
2023-02-25T12:49:34.951Z,2.10
2023-02-25T12:52:42.575Z,2.40
2023-02-25T12:55:46.633Z,2.17
2023-02-25T12:58:30.316Z,2.22
2023-02-25T13:01:18.876Z,2.47
2023-02-25T13:04:42.496Z,2.28
2023-02-25T13:07:24.275Z,2.20
2023-02-25T13:10:20.177Z,2.70
2023-02-25T13:13:33.563Z,2.20
2023-02-25T13:16:31.818Z,2.30
2023-02-25T13:19:39.492Z,2.13
2023-02-25T13:22:43.278Z,2.85
2023-02-25T13:26:06.646Z,2.22
2023-02-25T13:29:12.793Z,2.80
2023-02-25T13:32:07.870Z,2.40
2023-02-25T13:34:52.036Z,2.67
2023-02-25T13:37:41.710Z,2.25
2023-02-25T13:40:37.258Z,2.38
2023-02-25T13:43:29.606Z,2.47
2023-02-25T13:46:37.695Z,2.50
2023-02-25T13:52:09.507Z,2.22
2023-02-25T13:54:53.999Z,2.28
2023-02-25T13:58:02.933Z,2.08
2023-02-25T14:00:47.932Z,2.03
2023-02-25T14:03:53.799Z,2.85
2023-02-25T14:06:26.205Z,2.90
2023-02-25T14:09:21.925Z,2.08
2023-02-25T14:12:22.551Z,2.55
2023-02-25T14:15:19.951Z,2.22
2023-02-25T14:18:04.833Z,2.58
2023-02-25T14:20:44.094Z,2.97
2023-02-25T14:23:47.996Z,2.70
2023-02-25T14:26:35.632Z,2.10
2023-02-25T14:29:48.606Z,2.78
2023-02-25T14:32:47.600Z,1.92
2023-02-25T14:35:16.964Z,1.80
2023-02-25T14:38:07.410Z,2.35
2023-02-25T14:41:01.766Z,2.30
2023-02-25T14:43:33.790Z,1.85
2023-02-25T14:46:30.796Z,2.60
2023-02-25T14:49:38.288Z,2.35
2023-02-25T14:52:32.367Z,2.20
2023-02-25T14:55:29.241Z,2.30
2023-02-25T14:58:36.845Z,1.63
2023-02-25T15:01:39.832Z,2.00
2023-02-25T15:04:42.213Z,1.95
2023-02-25T15:07:29.944Z,1.80
2023-02-25T15:10:25.673Z,2.40
2023-02-25T15:14:04.318Z,2.35
2023-02-25T15:17:13.777Z,1.83
2023-02-25T15:20:38.666Z,2.47
2023-02-25T15:23:14.188Z,1.65
2023-02-25T15:26:21.763Z,1.70
2023-02-25T15:28:52.189Z,1.98
2023-02-25T15:31:33.773Z,2.00
2023-02-25T15:34:22.725Z,1.70
2023-02-25T15:36:51.783Z,2.55
2023-02-25T15:39:50.947Z,1.88
2023-02-25T15:42:49.650Z,2.17
2023-02-25T15:45:28.524Z,2.03
2023-02-25T15:48:06.993Z,1.83
2023-02-25T15:50:42.549Z,1.75
2023-02-25T15:53:20.853Z,1.27
2023-02-25T15:55:50.174Z,1.73
2023-02-25T15:58:25.546Z,2.10
2023-02-25T16:01:07.142Z,2.40
2023-02-25T16:03:36.411Z,1.50
2023-02-25T16:06:12.462Z,1.77
2023-02-25T16:08:49.344Z,2.17
2023-02-25T16:11:49.316Z,2.50
2023-02-25T16:14:26.145Z,1.52
2023-02-25T16:17:19.991Z,1.98
2023-02-25T16:19:59.110Z,1.38
2023-02-25T16:22:29.875Z,1.52
2023-02-25T16:25:01.622Z,1.63
2023-02-25T16:27:52.845Z,1.88
2023-02-25T16:30:44.434Z,1.67
2023-02-25T16:33:46.720Z,1.60
2023-02-25T16:36:39.578Z,1.48
2023-02-25T16:39:18.464Z,1.60
2023-02-25T16:41:45.341Z,1.88
2023-02-25T16:44:39.590Z,1.98
2023-02-25T16:47:30.502Z,2.45
2023-02-25T16:50:01.468Z,1.98
2023-02-25T16:52:40.274Z,1.70
2023-02-25T16:55:12.634Z,2.22
2023-02-25T16:57:39.482Z,1.80
2023-02-25T17:00:20.083Z,1.42
2023-02-25T17:02:52.532Z,2.08
2023-02-25T17:05:32.486Z,1.67
2023-02-25T17:08:14.664Z,1.75
2023-02-25T17:10:49.745Z,1.58
2023-02-25T17:13:26.257Z,2.13
2023-02-25T17:15:54.088Z,2.17
2023-02-25T17:18:53.411Z,2.20
2023-02-25T17:21:29.444Z,2.22
2023-02-25T17:24:00.259Z,2.58
2023-02-25T17:26:27.978Z,2.60
2023-02-25T17:29:00.236Z,1.70
2023-02-25T17:31:30.223Z,2.50
2023-02-25T17:34:01.091Z,2.30
2023-02-25T17:36:33.010Z,3.13
2023-02-25T17:39:20.618Z,2.53
2023-02-25T17:41:48.577Z,2.67
2023-02-25T17:44:37.566Z,1.98
2023-02-25T17:47:08.011Z,2.42
2023-02-25T17:49:37.583Z,2.10
2023-02-25T17:52:07.985Z,2.70
2023-02-25T17:54:38.090Z,2.25
2023-02-25T17:57:18.887Z,1.80
2023-02-25T18:00:00.331Z,2.22
2023-02-25T18:02:37.502Z,2.20
2023-02-25T18:05:12.852Z,2.13
2023-02-25T18:07:59.891Z,2.88
2023-02-25T18:10:26.270Z,2.00
2023-02-25T18:12:55.380Z,2.55
2023-02-25T18:15:30.831Z,2.40
2023-02-25T18:18:01.409Z,2.17
2023-02-25T18:20:38.304Z,2.15
2023-02-25T18:23:15.231Z,2.70
2023-02-25T18:25:45.252Z,1.90
2023-02-25T18:28:21.449Z,2.50
2023-02-25T18:30:50.644Z,1.80
2023-02-25T18:33:18.523Z,2.20
2023-02-25T18:35:48.080Z,2.35
2023-02-25T18:38:20.586Z,2.15
2023-02-25T18:40:49.970Z,2.60
2023-02-25T18:43:19.933Z,2.10
2023-02-25T18:45:47.216Z,2.50
2023-02-25T18:48:14.051Z,2.45
2023-02-25T18:50:44.269Z,2.85
2023-02-25T18:53:25.507Z,2.60
2023-02-25T18:55:54.303Z,2.90
2023-02-25T18:58:21.765Z,2.80
2023-02-25T19:00:53.624Z,2.60
2023-02-25T19:03:33.655Z,2.72
2023-02-25T19:06:00.935Z,3.10
2023-02-25T19:08:27.650Z,2.88
2023-02-25T19:10:54.468Z,3.00
2023-02-25T19:13:33.431Z,2.58
2023-02-25T19:16:00.238Z,2.90
2023-02-25T19:18:26.792Z,2.65
2023-02-25T19:20:53.316Z,3.30
2023-02-25T19:23:20.592Z,3.13
2023-02-25T19:25:54.979Z,3.20
2023-02-25T19:28:21.750Z,2.80
2023-02-25T19:30:48.818Z,3.97
2023-02-25T19:33:15.705Z,4.15
2023-02-25T19:35:43.894Z,3.50
2023-02-25T19:38:17.839Z,3.60
2023-02-25T19:40:46.488Z,3.80
2023-02-25T19:43:13.757Z,3.47
2023-02-25T19:45:41.440Z,3.08
2023-02-25T19:48:08.576Z,3.65
2023-02-25T19:50:36.893Z,4.20
2023-02-25T19:53:05.647Z,3.80
2023-02-25T19:55:33.223Z,3.83
2023-02-25T19:57:59.762Z,4.40
2023-02-25T20:00:26.876Z,4.38
2023-02-25T20:02:53.955Z,4.30
2023-02-25T20:05:22.603Z,4.82
2023-02-25T20:07:49.634Z,4.68
2023-02-25T20:10:19.917Z,4.50
2023-02-25T20:12:47.290Z,4.85
2023-02-25T20:15:15.510Z,4.30
2023-02-25T20:17:45.102Z,3.70
2023-02-25T20:20:14.562Z,3.42
2023-02-25T20:22:41.998Z,3.50
2023-02-25T20:25:10.394Z,3.58
2023-02-25T20:27:39.590Z,3.58
2023-02-25T20:30:07.338Z,2.88
2023-02-25T20:32:34.741Z,3.40
2023-02-25T20:35:02.179Z,3.78
2023-02-25T20:37:38.895Z,3.40
2023-02-25T20:42:35.329Z,4.22
2023-02-25T20:45:02.384Z,4.15
2023-02-25T20:47:34.960Z,3.67
2023-02-25T20:50:02.484Z,4.35
2023-02-25T20:52:29.166Z,5.22
2023-02-25T20:54:56.285Z,4.45
2023-02-25T20:57:26.580Z,4.50
2023-02-25T20:59:54.248Z,4.93
2023-02-25T21:02:22.122Z,4.43
2023-02-25T21:04:49.058Z,4.97
2023-02-25T21:07:15.958Z,4.93
2023-02-25T21:09:42.447Z,4.70
2023-02-25T21:12:09.383Z,4.53
2023-02-25T21:14:35.953Z,4.47
2023-02-25T21:17:02.885Z,4.10
2023-02-25T21:19:29.461Z,4.10
2023-02-25T21:21:56.327Z,4.10
2023-02-25T21:24:23.536Z,4.10
2023-02-25T21:26:50.086Z,4.47
2023-02-25T21:29:16.644Z,4.28
2023-02-25T21:31:43.826Z,3.95
2023-02-25T21:34:13.912Z,4.72
2023-02-25T21:36:41.454Z,4.13
2023-02-25T21:39:09.630Z,4.57
2023-02-25T21:41:44.269Z,4.53
2023-02-25T21:44:12.295Z,5.72
2023-02-25T21:46:39.470Z,5.40
2023-02-25T21:49:06.044Z,4.97
2023-02-25T21:51:32.526Z,5.78
2023-02-25T21:54:01.278Z,5.63
2023-02-25T21:56:29.706Z,6.50
2023-02-25T21:59:03.196Z,7.10
2023-02-25T22:01:34.356Z,7.45
2023-02-25T22:04:01.586Z,6.57
2023-02-25T22:06:28.654Z,8.57
2023-02-25T22:08:55.672Z,7.60
2023-02-25T22:11:35.284Z,6.65
2023-02-25T22:14:05.536Z,7.25
2023-02-25T22:16:33.445Z,7.85
2023-02-25T22:19:00.454Z,7.80
2023-02-25T22:21:32.789Z,7.32
2023-02-25T22:24:03.339Z,7.50
2023-02-25T22:26:33.867Z,7.88
2023-02-25T22:29:06.605Z,6.50
2023-02-25T22:31:34.860Z,6.32
2023-02-25T22:34:02.819Z,7.15
2023-02-25T22:36:29.296Z,6.80
2023-02-25T22:38:56.535Z,6.40
2023-02-25T22:41:25.789Z,6.88
2023-02-25T22:43:52.884Z,7.20
2023-02-25T22:46:27.943Z,6.63
2023-02-25T22:48:55.812Z,7.25
2023-02-25T22:51:25.484Z,6.25
2023-02-25T22:53:53.240Z,6.55
2023-02-25T22:56:20.618Z,7.20
2023-02-25T22:58:47.457Z,6.50
2023-02-25T23:01:19.242Z,6.70
2023-02-25T23:03:47.865Z,6.90
2023-02-25T23:06:17.753Z,7.05
2023-02-25T23:08:44.877Z,4.80
2023-02-25T23:11:16.825Z,3.05
2023-02-25T23:13:47.414Z,2.80
2023-02-25T23:16:21.003Z,2.58
2023-02-25T23:18:49.048Z,2.53
2023-02-25T23:21:18.929Z,1.90
2023-02-25T23:23:51.810Z,1.70
2023-02-25T23:26:25.934Z,2.42
2023-02-25T23:28:58.559Z,2.25
2023-02-25T23:31:30.081Z,2.22
2023-02-25T23:34:03.165Z,2.10
2023-02-25T23:36:30.214Z,1.92
2023-02-25T23:39:01.076Z,2.28
2023-02-25T23:41:29.400Z,2.20
2023-02-25T23:44:00.446Z,1.90
2023-02-25T23:46:30.449Z,1.95
2023-02-25T23:49:00.301Z,1.85
2023-02-25T23:51:28.254Z,1.58
2023-02-25T23:53:58.695Z,1.42
2023-02-25T23:56:29.177Z,1.40
2023-02-25T23:58:56.262Z,2.05
